sensor_id;sensor_type;location;lat;lon;timestamp;P1;durP1;ratioP1;P2;durP2;ratioP2
12253;SDS011;6189;52.526;13.390;2023-03-11T00:00:11;12.27;;;10.73;;
12253;SDS011;6189;52.526;13.390;2023-03-11T00:03:00;13.60;;;11.17;;
12253;SDS011;6189;52.526;13.390;2023-03-11T00:05:47;14.37;;;12.03;;
12253;SDS011;6189;52.526;13.390;2023-03-11T00:08:33;12.73;;;10.40;;
12253;SDS011;6189;52.526;13.390;2023-03-11T00:11:18;12.97;;;11.47;;
12253;SDS011;6189;52.526;13.390;2023-03-11T00:14:05;14.20;;;11.77;;
12253;SDS011;6189;52.526;13.390;2023-03-11T00:16:52;14.47;;;12.37;;
12253;SDS011;6189;52.526;13.390;2023-03-11T00:19:38;15.43;;;12.33;;
12253;SDS011;6189;52.526;13.390;2023-03-11T00:22:23;15.13;;;11.90;;
12253;SDS011;6189;52.526;13.390;2023-03-11T00:25:09;12.53;;;10.93;;
12253;SDS011;6189;52.526;13.390;2023-03-11T00:27:55;13.33;;;11.17;;
12253;SDS011;6189;52.526;13.390;2023-03-11T00:30:42;13.03;;;10.93;;
12253;SDS011;6189;52.526;13.390;2023-03-11T00:33:31;13.83;;;11.40;;
12253;SDS011;6189;52.526;13.390;2023-03-11T00:36:20;11.93;;;9.83;;
12253;SDS011;6189;52.526;13.390;2023-03-11T00:39:14;11.47;;;9.87;;
12253;SDS011;6189;52.526;13.390;2023-03-11T00:42:00;11.10;;;9.87;;
12253;SDS011;6189;52.526;13.390;2023-03-11T00:44:46;11.90;;;10.43;;
12253;SDS011;6189;52.526;13.390;2023-03-11T00:47:32;12.53;;;10.43;;
12253;SDS011;6189;52.526;13.390;2023-03-11T00:50:19;10.60;;;9.40;;
12253;SDS011;6189;52.526;13.390;2023-03-11T00:53:06;10.67;;;9.50;;
12253;SDS011;6189;52.526;13.390;2023-03-11T00:55:52;10.97;;;9.77;;
12253;SDS011;6189;52.526;13.390;2023-03-11T00:58:37;10.63;;;9.53;;
12253;SDS011;6189;52.526;13.390;2023-03-11T01:01:24;10.43;;;9.43;;
12253;SDS011;6189;52.526;13.390;2023-03-11T01:04:10;11.23;;;10.03;;
12253;SDS011;6189;52.526;13.390;2023-03-11T01:06:57;10.73;;;9.70;;
12253;SDS011;6189;52.526;13.390;2023-03-11T01:09:43;12.57;;;11.07;;
12253;SDS011;6189;52.526;13.390;2023-03-11T01:12:28;12.83;;;11.30;;
12253;SDS011;6189;52.526;13.390;2023-03-11T01:15:15;12.20;;;10.90;;
12253;SDS011;6189;52.526;13.390;2023-03-11T01:18:04;12.60;;;11.30;;
12253;SDS011;6189;52.526;13.390;2023-03-11T01:20:50;12.83;;;11.17;;
12253;SDS011;6189;52.526;13.390;2023-03-11T01:23:37;13.23;;;11.93;;
12253;SDS011;6189;52.526;13.390;2023-03-11T01:26:23;12.27;;;11.07;;
12253;SDS011;6189;52.526;13.390;2023-03-11T01:29:08;12.53;;;11.23;;
12253;SDS011;6189;52.526;13.390;2023-03-11T01:31:54;11.53;;;10.43;;
12253;SDS011;6189;52.526;13.390;2023-03-11T01:34:40;12.17;;;10.90;;
12253;SDS011;6189;52.526;13.390;2023-03-11T01:37:26;10.87;;;9.70;;
12253;SDS011;6189;52.526;13.390;2023-03-11T01:40:25;10.00;;;9.00;;
12253;SDS011;6189;52.526;13.390;2023-03-11T01:46:24;8.10;;;7.30;;
12253;SDS011;6189;52.526;13.390;2023-03-11T01:49:11;8.13;;;7.30;;
12253;SDS011;6189;52.526;13.390;2023-03-11T01:51:58;6.73;;;6.03;;
12253;SDS011;6189;52.526;13.390;2023-03-11T01:54:46;6.30;;;5.70;;
12253;SDS011;6189;52.526;13.390;2023-03-11T01:57:33;5.70;;;5.10;;
12253;SDS011;6189;52.526;13.390;2023-03-11T02:00:20;4.70;;;4.30;;
12253;SDS011;6189;52.526;13.390;2023-03-11T02:03:06;4.40;;;3.60;;
12253;SDS011;6189;52.526;13.390;2023-03-11T02:05:55;3.60;;;3.30;;
12253;SDS011;6189;52.526;13.390;2023-03-11T02:08:44;2.63;;;2.43;;
12253;SDS011;6189;52.526;13.390;2023-03-11T02:11:30;2.97;;;2.70;;
12253;SDS011;6189;52.526;13.390;2023-03-11T02:14:17;2.67;;;2.40;;
12253;SDS011;6189;52.526;13.390;2023-03-11T02:17:04;2.23;;;2.00;;
12253;SDS011;6189;52.526;13.390;2023-03-11T02:19:57;2.03;;;1.80;;
12253;SDS011;6189;52.526;13.390;2023-03-11T02:22:51;1.47;;;1.37;;
12253;SDS011;6189;52.526;13.390;2023-03-11T02:25:40;1.77;;;1.53;;
12253;SDS011;6189;52.526;13.390;2023-03-11T02:28:33;1.90;;;1.60;;
12253;SDS011;6189;52.526;13.390;2023-03-11T02:31:20;1.70;;;1.60;;
12253;SDS011;6189;52.526;13.390;2023-03-11T02:34:08;1.80;;;1.50;;
12253;SDS011;6189;52.526;13.390;2023-03-11T02:37:00;1.60;;;1.50;;
12253;SDS011;6189;52.526;13.390;2023-03-11T02:39:49;1.43;;;1.33;;
12253;SDS011;6189;52.526;13.390;2023-03-11T02:42:36;1.90;;;1.70;;
12253;SDS011;6189;52.526;13.390;2023-03-11T02:45:24;2.03;;;1.57;;
12253;SDS011;6189;52.526;13.390;2023-03-11T02:48:10;1.80;;;1.67;;
12253;SDS011;6189;52.526;13.390;2023-03-11T02:50:57;1.70;;;1.60;;
12253;SDS011;6189;52.526;13.390;2023-03-11T02:53:45;1.67;;;1.57;;
12253;SDS011;6189;52.526;13.390;2023-03-11T02:56:34;1.90;;;1.63;;
12253;SDS011;6189;52.526;13.390;2023-03-11T02:59:19;2.17;;;2.00;;
12253;SDS011;6189;52.526;13.390;2023-03-11T03:02:06;2.07;;;1.87;;
12253;SDS011;6189;52.526;13.390;2023-03-11T03:04:52;1.97;;;1.70;;
12253;SDS011;6189;52.526;13.390;2023-03-11T03:07:38;2.27;;;2.07;;
12253;SDS011;6189;52.526;13.390;2023-03-11T03:10:23;2.13;;;1.90;;
12253;SDS011;6189;52.526;13.390;2023-03-11T03:13:09;1.90;;;1.80;;
12253;SDS011;6189;52.526;13.390;2023-03-11T03:15:55;3.77;;;2.37;;
12253;SDS011;6189;52.526;13.390;2023-03-11T03:18:42;2.90;;;2.17;;
12253;SDS011;6189;52.526;13.390;2023-03-11T03:21:28;4.00;;;2.50;;
12253;SDS011;6189;52.526;13.390;2023-03-11T03:24:13;3.33;;;2.63;;
12253;SDS011;6189;52.526;13.390;2023-03-11T03:26:59;2.83;;;2.50;;
12253;SDS011;6189;52.526;13.390;2023-03-11T03:29:45;3.70;;;3.03;;
12253;SDS011;6189;52.526;13.390;2023-03-11T03:32:30;3.87;;;3.30;;
12253;SDS011;6189;52.526;13.390;2023-03-11T03:35:18;4.03;;;3.57;;
12253;SDS011;6189;52.526;13.390;2023-03-11T03:38:04;3.80;;;3.33;;
12253;SDS011;6189;52.526;13.390;2023-03-11T03:40:49;4.13;;;3.47;;
12253;SDS011;6189;52.526;13.390;2023-03-11T03:43:35;3.93;;;3.20;;
12253;SDS011;6189;52.526;13.390;2023-03-11T03:46:21;3.77;;;3.00;;
12253;SDS011;6189;52.526;13.390;2023-03-11T03:49:07;3.53;;;3.20;;
12253;SDS011;6189;52.526;13.390;2023-03-11T03:51:54;3.50;;;3.07;;
12253;SDS011;6189;52.526;13.390;2023-03-11T03:54:39;3.57;;;3.27;;
12253;SDS011;6189;52.526;13.390;2023-03-11T03:57:25;3.87;;;3.50;;
12253;SDS011;6189;52.526;13.390;2023-03-11T04:00:12;3.70;;;3.40;;
12253;SDS011;6189;52.526;13.390;2023-03-11T04:02:59;3.73;;;3.40;;
12253;SDS011;6189;52.526;13.390;2023-03-11T04:05:45;3.67;;;3.37;;
12253;SDS011;6189;52.526;13.390;2023-03-11T04:08:32;3.63;;;3.33;;
12253;SDS011;6189;52.526;13.390;2023-03-11T04:11:18;3.63;;;3.30;;
12253;SDS011;6189;52.526;13.390;2023-03-11T04:14:04;4.57;;;3.20;;
12253;SDS011;6189;52.526;13.390;2023-03-11T04:16:50;4.10;;;3.67;;
12253;SDS011;6189;52.526;13.390;2023-03-11T04:19:35;3.50;;;3.20;;
12253;SDS011;6189;52.526;13.390;2023-03-11T04:22:21;4.03;;;3.63;;
12253;SDS011;6189;52.526;13.390;2023-03-11T04:25:08;4.20;;;3.63;;
12253;SDS011;6189;52.526;13.390;2023-03-11T04:27:54;3.73;;;3.20;;
12253;SDS011;6189;52.526;13.390;2023-03-11T04:30:40;3.77;;;3.40;;
12253;SDS011;6189;52.526;13.390;2023-03-11T04:33:26;4.03;;;3.47;;
12253;SDS011;6189;52.526;13.390;2023-03-11T04:36:11;3.40;;;3.10;;
12253;SDS011;6189;52.526;13.390;2023-03-11T04:38:57;3.47;;;2.93;;
12253;SDS011;6189;52.526;13.390;2023-03-11T04:41:44;3.70;;;3.37;;
12253;SDS011;6189;52.526;13.390;2023-03-11T04:44:30;3.13;;;2.83;;
12253;SDS011;6189;52.526;13.390;2023-03-11T04:47:15;3.50;;;3.07;;
12253;SDS011;6189;52.526;13.390;2023-03-11T04:50:01;3.40;;;3.10;;
12253;SDS011;6189;52.526;13.390;2023-03-11T04:52:46;3.27;;;2.97;;
12253;SDS011;6189;52.526;13.390;2023-03-11T04:55:32;3.73;;;3.10;;
12253;SDS011;6189;52.526;13.390;2023-03-11T04:58:19;3.40;;;2.90;;
12253;SDS011;6189;52.526;13.390;2023-03-11T05:01:05;3.50;;;2.70;;
12253;SDS011;6189;52.526;13.390;2023-03-11T05:03:50;3.03;;;2.67;;
12253;SDS011;6189;52.526;13.390;2023-03-11T05:06:36;2.90;;;2.53;;
12253;SDS011;6189;52.526;13.390;2023-03-11T05:09:22;2.60;;;2.40;;
12253;SDS011;6189;52.526;13.390;2023-03-11T05:12:08;3.23;;;2.87;;
12253;SDS011;6189;52.526;13.390;2023-03-11T05:14:57;3.37;;;3.07;;
12253;SDS011;6189;52.526;13.390;2023-03-11T05:17:42;3.57;;;3.07;;
12253;SDS011;6189;52.526;13.390;2023-03-11T05:20:28;2.80;;;2.57;;
12253;SDS011;6189;52.526;13.390;2023-03-11T05:23:15;3.40;;;3.10;;
12253;SDS011;6189;52.526;13.390;2023-03-11T05:26:00;2.93;;;2.70;;
12253;SDS011;6189;52.526;13.390;2023-03-11T05:28:46;3.10;;;2.80;;
12253;SDS011;6189;52.526;13.390;2023-03-11T05:31:33;3.30;;;3.00;;
12253;SDS011;6189;52.526;13.390;2023-03-11T05:34:18;4.33;;;2.67;;
12253;SDS011;6189;52.526;13.390;2023-03-11T05:37:04;4.00;;;2.77;;
12253;SDS011;6189;52.526;13.390;2023-03-11T05:39:50;3.77;;;2.73;;
12253;SDS011;6189;52.526;13.390;2023-03-11T05:42:36;3.70;;;3.10;;
12253;SDS011;6189;52.526;13.390;2023-03-11T05:45:22;3.60;;;3.13;;
12253;SDS011;6189;52.526;13.390;2023-03-11T05:48:09;3.37;;;2.80;;
12253;SDS011;6189;52.526;13.390;2023-03-11T05:50:55;4.50;;;2.93;;
12253;SDS011;6189;52.526;13.390;2023-03-11T05:53:42;3.50;;;3.20;;
12253;SDS011;6189;52.526;13.390;2023-03-11T05:56:30;3.47;;;3.07;;
12253;SDS011;6189;52.526;13.390;2023-03-11T05:59:16;3.90;;;3.37;;
12253;SDS011;6189;52.526;13.390;2023-03-11T06:02:02;4.03;;;3.50;;
12253;SDS011;6189;52.526;13.390;2023-03-11T06:04:49;3.70;;;3.30;;
12253;SDS011;6189;52.526;13.390;2023-03-11T06:07:35;4.03;;;3.63;;
12253;SDS011;6189;52.526;13.390;2023-03-11T06:10:21;4.40;;;3.53;;
12253;SDS011;6189;52.526;13.390;2023-03-11T06:13:06;5.07;;;4.00;;
12253;SDS011;6189;52.526;13.390;2023-03-11T06:15:52;4.07;;;3.70;;
12253;SDS011;6189;52.526;13.390;2023-03-11T06:18:38;3.83;;;3.40;;
12253;SDS011;6189;52.526;13.390;2023-03-11T06:21:25;4.17;;;3.77;;
12253;SDS011;6189;52.526;13.390;2023-03-11T06:24:11;4.53;;;4.10;;
12253;SDS011;6189;52.526;13.390;2023-03-11T06:26:57;5.43;;;4.50;;
12253;SDS011;6189;52.526;13.390;2023-03-11T06:29:43;4.80;;;4.30;;
12253;SDS011;6189;52.526;13.390;2023-03-11T06:32:28;4.93;;;4.43;;
12253;SDS011;6189;52.526;13.390;2023-03-11T06:35:14;5.70;;;4.37;;
12253;SDS011;6189;52.526;13.390;2023-03-11T06:38:01;5.17;;;4.53;;
12253;SDS011;6189;52.526;13.390;2023-03-11T06:40:47;5.73;;;4.20;;
12253;SDS011;6189;52.526;13.390;2023-03-11T06:43:33;4.73;;;4.10;;
12253;SDS011;6189;52.526;13.390;2023-03-11T06:46:20;4.77;;;4.03;;
12253;SDS011;6189;52.526;13.390;2023-03-11T06:49:06;6.60;;;5.30;;
12253;SDS011;6189;52.526;13.390;2023-03-11T06:51:52;4.80;;;4.30;;
12253;SDS011;6189;52.526;13.390;2023-03-11T06:54:39;5.90;;;4.67;;
12253;SDS011;6189;52.526;13.390;2023-03-11T06:57:25;4.70;;;4.07;;
12253;SDS011;6189;52.526;13.390;2023-03-11T07:00:13;5.30;;;4.77;;
12253;SDS011;6189;52.526;13.390;2023-03-11T07:02:59;6.97;;;4.53;;
12253;SDS011;6189;52.526;13.390;2023-03-11T07:05:48;5.77;;;4.30;;
12253;SDS011;6189;52.526;13.390;2023-03-11T07:08:34;5.60;;;4.40;;
12253;SDS011;6189;52.526;13.390;2023-03-11T07:11:22;4.83;;;4.30;;
12253;SDS011;6189;52.526;13.390;2023-03-11T07:14:09;4.83;;;4.33;;
12253;SDS011;6189;52.526;13.390;2023-03-11T07:16:55;4.80;;;4.10;;
12253;SDS011;6189;52.526;13.390;2023-03-11T07:19:40;5.43;;;4.20;;
12253;SDS011;6189;52.526;13.390;2023-03-11T07:22:26;6.17;;;4.87;;
12253;SDS011;6189;52.526;13.390;2023-03-11T07:25:12;6.03;;;4.93;;
12253;SDS011;6189;52.526;13.390;2023-03-11T07:27:59;7.33;;;4.70;;
12253;SDS011;6189;52.526;13.390;2023-03-11T07:30:44;5.60;;;4.87;;
12253;SDS011;6189;52.526;13.390;2023-03-11T07:33:31;6.30;;;4.63;;
12253;SDS011;6189;52.526;13.390;2023-03-11T07:36:17;6.93;;;4.57;;
12253;SDS011;6189;52.526;13.390;2023-03-11T07:39:04;6.20;;;4.67;;
12253;SDS011;6189;52.526;13.390;2023-03-11T07:41:50;6.47;;;5.00;;
12253;SDS011;6189;52.526;13.390;2023-03-11T07:44:36;6.80;;;4.43;;
12253;SDS011;6189;52.526;13.390;2023-03-11T07:47:22;8.47;;;5.13;;
12253;SDS011;6189;52.526;13.390;2023-03-11T07:50:08;6.87;;;4.83;;
12253;SDS011;6189;52.526;13.390;2023-03-11T07:52:54;8.50;;;4.63;;
12253;SDS011;6189;52.526;13.390;2023-03-11T07:55:40;6.77;;;5.13;;
12253;SDS011;6189;52.526;13.390;2023-03-11T07:58:26;6.83;;;4.60;;
12253;SDS011;6189;52.526;13.390;2023-03-11T08:01:13;6.53;;;4.93;;
12253;SDS011;6189;52.526;13.390;2023-03-11T08:04:00;7.10;;;5.10;;
12253;SDS011;6189;52.526;13.390;2023-03-11T08:06:48;6.73;;;5.40;;
12253;SDS011;6189;52.526;13.390;2023-03-11T08:09:33;6.33;;;5.03;;
12253;SDS011;6189;52.526;13.390;2023-03-11T08:12:19;7.00;;;5.00;;
12253;SDS011;6189;52.526;13.390;2023-03-11T08:15:05;7.47;;;5.27;;
12253;SDS011;6189;52.526;13.390;2023-03-11T08:17:53;6.53;;;5.20;;
12253;SDS011;6189;52.526;13.390;2023-03-11T08:20:39;6.27;;;5.30;;
12253;SDS011;6189;52.526;13.390;2023-03-11T08:23:25;6.40;;;5.10;;
12253;SDS011;6189;52.526;13.390;2023-03-11T08:26:11;7.17;;;5.20;;
12253;SDS011;6189;52.526;13.390;2023-03-11T08:28:58;7.70;;;5.70;;
12253;SDS011;6189;52.526;13.390;2023-03-11T08:31:44;8.37;;;5.50;;
12253;SDS011;6189;52.526;13.390;2023-03-11T08:34:31;5.33;;;4.83;;
12253;SDS011;6189;52.526;13.390;2023-03-11T08:37:17;5.87;;;5.03;;
12253;SDS011;6189;52.526;13.390;2023-03-11T08:40:03;7.50;;;5.60;;
12253;SDS011;6189;52.526;13.390;2023-03-11T08:42:50;5.70;;;4.97;;
12253;SDS011;6189;52.526;13.390;2023-03-11T08:45:38;6.10;;;5.33;;
12253;SDS011;6189;52.526;13.390;2023-03-11T08:48:23;7.57;;;5.60;;
12253;SDS011;6189;52.526;13.390;2023-03-11T08:51:10;8.37;;;5.20;;
12253;SDS011;6189;52.526;13.390;2023-03-11T08:53:57;5.50;;;5.00;;
12253;SDS011;6189;52.526;13.390;2023-03-11T08:56:43;6.40;;;4.93;;
12253;SDS011;6189;52.526;13.390;2023-03-11T08:59:30;6.63;;;5.00;;
12253;SDS011;6189;52.526;13.390;2023-03-11T09:02:16;5.23;;;4.70;;
12253;SDS011;6189;52.526;13.390;2023-03-11T09:05:02;6.60;;;4.83;;
12253;SDS011;6189;52.526;13.390;2023-03-11T09:07:49;5.87;;;4.83;;
12253;SDS011;6189;52.526;13.390;2023-03-11T09:10:35;6.77;;;4.70;;
12253;SDS011;6189;52.526;13.390;2023-03-11T09:13:20;6.30;;;4.20;;
12253;SDS011;6189;52.526;13.390;2023-03-11T09:16:06;6.47;;;4.60;;
12253;SDS011;6189;52.526;13.390;2023-03-11T09:18:52;6.90;;;4.67;;
12253;SDS011;6189;52.526;13.390;2023-03-11T09:21:38;7.40;;;5.23;;
12253;SDS011;6189;52.526;13.390;2023-03-11T09:24:25;6.13;;;5.43;;
12253;SDS011;6189;52.526;13.390;2023-03-11T09:27:11;6.83;;;5.43;;
12253;SDS011;6189;52.526;13.390;2023-03-11T09:29:58;9.57;;;5.87;;
12253;SDS011;6189;52.526;13.390;2023-03-11T09:32:43;7.87;;;6.10;;
12253;SDS011;6189;52.526;13.390;2023-03-11T09:35:29;8.43;;;6.10;;
12253;SDS011;6189;52.526;13.390;2023-03-11T09:38:15;6.90;;;5.63;;
12253;SDS011;6189;52.526;13.390;2023-03-11T09:41:03;6.40;;;5.23;;
12253;SDS011;6189;52.526;13.390;2023-03-11T09:44:06;6.73;;;5.43;;
12253;SDS011;6189;52.526;13.390;2023-03-11T09:47:20;6.47;;;4.83;;
12253;SDS011;6189;52.526;13.390;2023-03-11T09:50:32;6.70;;;4.93;;
12253;SDS011;6189;52.526;13.390;2023-03-11T09:53:21;5.90;;;5.30;;
12253;SDS011;6189;52.526;13.390;2023-03-11T09:56:14;7.73;;;4.93;;
12253;SDS011;6189;52.526;13.390;2023-03-11T09:59:03;6.33;;;5.10;;
12253;SDS011;6189;52.526;13.390;2023-03-11T10:01:51;5.70;;;5.20;;
12253;SDS011;6189;52.526;13.390;2023-03-11T10:04:38;7.07;;;5.27;;
12253;SDS011;6189;52.526;13.390;2023-03-11T10:07:31;7.27;;;5.90;;
12253;SDS011;6189;52.526;13.390;2023-03-11T10:10:20;10.43;;;6.10;;
12253;SDS011;6189;52.526;13.390;2023-03-11T10:13:09;6.23;;;5.30;;
12253;SDS011;6189;52.526;13.390;2023-03-11T10:16:05;6.37;;;5.57;;
12253;SDS011;6189;52.526;13.390;2023-03-11T10:18:58;8.13;;;5.30;;
12253;SDS011;6189;52.526;13.390;2023-03-11T10:21:55;8.50;;;5.63;;
12253;SDS011;6189;52.526;13.390;2023-03-11T10:24:49;9.20;;;6.10;;
12253;SDS011;6189;52.526;13.390;2023-03-11T10:27:46;7.33;;;6.63;;
12253;SDS011;6189;52.526;13.390;2023-03-11T10:30:36;8.83;;;6.40;;
12253;SDS011;6189;52.526;13.390;2023-03-11T10:33:28;7.90;;;6.93;;
12253;SDS011;6189;52.526;13.390;2023-03-11T10:36:18;7.20;;;6.47;;
12253;SDS011;6189;52.526;13.390;2023-03-11T10:39:07;7.73;;;6.57;;
12253;SDS011;6189;52.526;13.390;2023-03-11T10:41:55;7.53;;;6.70;;
12253;SDS011;6189;52.526;13.390;2023-03-11T10:44:43;7.60;;;6.83;;
12253;SDS011;6189;52.526;13.390;2023-03-11T10:47:30;7.37;;;6.40;;
12253;SDS011;6189;52.526;13.390;2023-03-11T10:50:17;7.43;;;6.63;;
12253;SDS011;6189;52.526;13.390;2023-03-11T10:53:04;13.43;;;7.97;;
12253;SDS011;6189;52.526;13.390;2023-03-11T10:55:54;6.40;;;5.80;;
12253;SDS011;6189;52.526;13.390;2023-03-11T10:58:44;10.47;;;5.63;;
12253;SDS011;6189;52.526;13.390;2023-03-11T11:01:33;7.77;;;6.30;;
12253;SDS011;6189;52.526;13.390;2023-03-11T11:04:24;7.47;;;6.20;;
12253;SDS011;6189;52.526;13.390;2023-03-11T11:07:20;6.53;;;5.87;;
12253;SDS011;6189;52.526;13.390;2023-03-11T11:10:16;7.70;;;6.30;;
12253;SDS011;6189;52.526;13.390;2023-03-11T11:13:16;7.47;;;5.33;;
12253;SDS011;6189;52.526;13.390;2023-03-11T11:16:03;7.67;;;6.83;;
12253;SDS011;6189;52.526;13.390;2023-03-11T11:19:01;8.27;;;7.00;;
12253;SDS011;6189;52.526;13.390;2023-03-11T11:21:53;7.33;;;6.53;;
12253;SDS011;6189;52.526;13.390;2023-03-11T11:24:41;7.53;;;6.50;;
12253;SDS011;6189;52.526;13.390;2023-03-11T11:27:29;7.10;;;6.40;;
12253;SDS011;6189;52.526;13.390;2023-03-11T11:30:17;8.43;;;6.93;;
12253;SDS011;6189;52.526;13.390;2023-03-11T11:33:18;7.90;;;7.10;;
12253;SDS011;6189;52.526;13.390;2023-03-11T11:36:11;7.40;;;6.70;;
12253;SDS011;6189;52.526;13.390;2023-03-11T11:39:01;8.50;;;7.37;;
12253;SDS011;6189;52.526;13.390;2023-03-11T11:41:55;8.43;;;7.50;;
12253;SDS011;6189;52.526;13.390;2023-03-11T11:44:40;10.57;;;8.13;;
12253;SDS011;6189;52.526;13.390;2023-03-11T11:47:29;9.30;;;8.23;;
12253;SDS011;6189;52.526;13.390;2023-03-11T11:50:22;9.40;;;8.50;;
12253;SDS011;6189;52.526;13.390;2023-03-11T11:53:18;8.53;;;7.63;;
12253;SDS011;6189;52.526;13.390;2023-03-11T11:56:11;9.30;;;8.30;;
12253;SDS011;6189;52.526;13.390;2023-03-11T11:58:57;9.27;;;8.33;;
12253;SDS011;6189;52.526;13.390;2023-03-11T12:01:45;9.93;;;8.27;;
12253;SDS011;6189;52.526;13.390;2023-03-11T12:04:47;9.23;;;8.33;;
12253;SDS011;6189;52.526;13.390;2023-03-11T12:07:45;8.77;;;7.40;;
12253;SDS011;6189;52.526;13.390;2023-03-11T12:10:48;8.10;;;7.30;;
12253;SDS011;6189;52.526;13.390;2023-03-11T12:13:48;8.80;;;7.70;;
12253;SDS011;6189;52.526;13.390;2023-03-11T12:16:44;10.77;;;7.93;;
12253;SDS011;6189;52.526;13.390;2023-03-11T12:19:36;10.07;;;8.27;;
12253;SDS011;6189;52.526;13.390;2023-03-11T12:25:53;9.60;;;8.10;;
12253;SDS011;6189;52.526;13.390;2023-03-11T12:28:51;8.93;;;7.53;;
12253;SDS011;6189;52.526;13.390;2023-03-11T12:31:40;8.97;;;8.07;;
12253;SDS011;6189;52.526;13.390;2023-03-11T12:34:26;8.93;;;7.70;;
12253;SDS011;6189;52.526;13.390;2023-03-11T12:37:13;11.20;;;7.70;;
12253;SDS011;6189;52.526;13.390;2023-03-11T12:39:59;9.93;;;7.10;;
12253;SDS011;6189;52.526;13.390;2023-03-11T12:53:25;8.00;;;7.20;;
12253;SDS011;6189;52.526;13.390;2023-03-11T12:56:27;8.80;;;7.60;;
12253;SDS011;6189;52.526;13.390;2023-03-11T12:59:21;9.00;;;7.23;;
12253;SDS011;6189;52.526;13.390;2023-03-11T13:02:30;7.70;;;6.90;;
12253;SDS011;6189;52.526;13.390;2023-03-11T13:05:31;10.17;;;6.93;;
12253;SDS011;6189;52.526;13.390;2023-03-11T13:08:33;9.30;;;7.93;;
12253;SDS011;6189;52.526;13.390;2023-03-11T13:11:34;8.50;;;7.70;;
12253;SDS011;6189;52.526;13.390;2023-03-11T13:14:27;12.90;;;9.37;;
12253;SDS011;6189;52.526;13.390;2023-03-11T13:17:22;20.53;;;13.17;;
12253;SDS011;6189;52.526;13.390;2023-03-11T13:23:34;10.53;;;8.37;;
12253;SDS011;6189;52.526;13.390;2023-03-11T13:26:24;11.27;;;7.73;;
12253;SDS011;6189;52.526;13.390;2023-03-11T13:29:28;9.07;;;7.57;;
12253;SDS011;6189;52.526;13.390;2023-03-11T13:36:00;7.97;;;6.87;;
12253;SDS011;6189;52.526;13.390;2023-03-11T13:39:06;10.30;;;7.97;;
12253;SDS011;6189;52.526;13.390;2023-03-11T13:42:10;8.17;;;6.50;;
12253;SDS011;6189;52.526;13.390;2023-03-11T13:45:01;8.23;;;6.37;;
12253;SDS011;6189;52.526;13.390;2023-03-11T13:47:48;8.30;;;6.57;;
12253;SDS011;6189;52.526;13.390;2023-03-11T13:50:35;7.30;;;6.30;;
12253;SDS011;6189;52.526;13.390;2023-03-11T13:53:30;6.10;;;5.50;;
12253;SDS011;6189;52.526;13.390;2023-03-11T13:56:20;6.60;;;5.70;;
12253;SDS011;6189;52.526;13.390;2023-03-11T13:59:16;6.93;;;5.70;;
12253;SDS011;6189;52.526;13.390;2023-03-11T14:02:13;5.20;;;4.70;;
12253;SDS011;6189;52.526;13.390;2023-03-11T14:05:02;5.27;;;4.77;;
12253;SDS011;6189;52.526;13.390;2023-03-11T14:07:50;5.50;;;4.83;;
12253;SDS011;6189;52.526;13.390;2023-03-11T14:10:37;7.27;;;5.67;;
12253;SDS011;6189;52.526;13.390;2023-03-11T14:13:23;7.10;;;4.97;;
12253;SDS011;6189;52.526;13.390;2023-03-11T14:16:12;6.53;;;5.63;;
12253;SDS011;6189;52.526;13.390;2023-03-11T14:19:00;6.53;;;5.63;;
12253;SDS011;6189;52.526;13.390;2023-03-11T14:21:48;6.13;;;5.30;;
12253;SDS011;6189;52.526;13.390;2023-03-11T14:24:35;6.23;;;5.43;;
12253;SDS011;6189;52.526;13.390;2023-03-11T14:27:23;5.63;;;4.60;;
12253;SDS011;6189;52.526;13.390;2023-03-11T14:30:15;9.27;;;5.27;;
12253;SDS011;6189;52.526;13.390;2023-03-11T14:33:04;7.43;;;5.00;;
12253;SDS011;6189;52.526;13.390;2023-03-11T14:36:01;5.67;;;5.17;;
12253;SDS011;6189;52.526;13.390;2023-03-11T14:38:48;6.37;;;5.23;;
12253;SDS011;6189;52.526;13.390;2023-03-11T14:41:34;7.67;;;4.53;;
12253;SDS011;6189;52.526;13.390;2023-03-11T14:44:21;7.63;;;4.60;;
12253;SDS011;6189;52.526;13.390;2023-03-11T14:47:10;5.47;;;4.60;;
12253;SDS011;6189;52.526;13.390;2023-03-11T14:50:00;6.83;;;4.73;;
12253;SDS011;6189;52.526;13.390;2023-03-11T14:52:48;5.50;;;4.90;;
12253;SDS011;6189;52.526;13.390;2023-03-11T14:55:38;5.20;;;4.70;;
12253;SDS011;6189;52.526;13.390;2023-03-11T14:58:27;6.10;;;4.67;;
12253;SDS011;6189;52.526;13.390;2023-03-11T15:01:19;5.30;;;4.30;;
12253;SDS011;6189;52.526;13.390;2023-03-11T15:04:09;6.53;;;4.57;;
12253;SDS011;6189;52.526;13.390;2023-03-11T15:06:56;7.57;;;4.73;;
12253;SDS011;6189;52.526;13.390;2023-03-11T15:09:43;7.00;;;4.40;;
12253;SDS011;6189;52.526;13.390;2023-03-11T15:12:30;5.10;;;4.40;;
12253;SDS011;6189;52.526;13.390;2023-03-11T15:15:24;5.10;;;4.57;;
12253;SDS011;6189;52.526;13.390;2023-03-11T15:18:19;6.63;;;4.37;;
12253;SDS011;6189;52.526;13.390;2023-03-11T15:21:12;5.63;;;4.00;;
12253;SDS011;6189;52.526;13.390;2023-03-11T15:23:59;4.80;;;3.70;;
12253;SDS011;6189;52.526;13.390;2023-03-11T15:26:52;4.67;;;3.83;;
12253;SDS011;6189;52.526;13.390;2023-03-11T15:29:39;5.27;;;4.23;;
12253;SDS011;6189;52.526;13.390;2023-03-11T15:32:37;3.90;;;3.53;;
12253;SDS011;6189;52.526;13.390;2023-03-11T15:35:26;5.57;;;4.10;;
12253;SDS011;6189;52.526;13.390;2023-03-11T15:38:17;6.90;;;4.70;;
12253;SDS011;6189;52.526;13.390;2023-03-11T15:41:08;4.33;;;3.57;;
12253;SDS011;6189;52.526;13.390;2023-03-11T15:43:54;7.20;;;3.97;;
12253;SDS011;6189;52.526;13.390;2023-03-11T15:46:44;4.73;;;3.60;;
12253;SDS011;6189;52.526;13.390;2023-03-11T15:49:30;5.63;;;3.70;;
12253;SDS011;6189;52.526;13.390;2023-03-11T15:52:18;5.53;;;3.90;;
12253;SDS011;6189;52.526;13.390;2023-03-11T15:55:05;3.87;;;3.40;;
12253;SDS011;6189;52.526;13.390;2023-03-11T15:57:52;4.10;;;3.40;;
12253;SDS011;6189;52.526;13.390;2023-03-11T16:00:45;7.07;;;3.70;;
12253;SDS011;6189;52.526;13.390;2023-03-11T16:03:32;5.23;;;3.40;;
12253;SDS011;6189;52.526;13.390;2023-03-11T16:06:18;6.33;;;4.67;;
12253;SDS011;6189;52.526;13.390;2023-03-11T16:09:07;7.53;;;4.03;;
12253;SDS011;6189;52.526;13.390;2023-03-11T16:11:53;5.50;;;3.13;;
12253;SDS011;6189;52.526;13.390;2023-03-11T16:14:39;4.87;;;3.60;;
12253;SDS011;6189;52.526;13.390;2023-03-11T16:17:24;5.00;;;3.63;;
12253;SDS011;6189;52.526;13.390;2023-03-11T16:20:10;6.60;;;3.40;;
12253;SDS011;6189;52.526;13.390;2023-03-11T16:22:57;4.50;;;2.97;;
12253;SDS011;6189;52.526;13.390;2023-03-11T16:25:45;7.50;;;3.40;;
12253;SDS011;6189;52.526;13.390;2023-03-11T16:28:31;6.13;;;3.57;;
12253;SDS011;6189;52.526;13.390;2023-03-11T16:31:17;4.50;;;3.27;;
12253;SDS011;6189;52.526;13.390;2023-03-11T16:34:03;7.93;;;5.00;;
12253;SDS011;6189;52.526;13.390;2023-03-11T16:36:49;5.37;;;3.43;;
12253;SDS011;6189;52.526;13.390;2023-03-11T16:39:34;4.47;;;3.60;;
12253;SDS011;6189;52.526;13.390;2023-03-11T16:42:22;5.43;;;3.30;;
12253;SDS011;6189;52.526;13.390;2023-03-11T16:45:08;6.23;;;3.10;;
12253;SDS011;6189;52.526;13.390;2023-03-11T16:47:54;3.87;;;2.87;;
12253;SDS011;6189;52.526;13.390;2023-03-11T16:50:40;3.67;;;3.00;;
12253;SDS011;6189;52.526;13.390;2023-03-11T16:53:26;4.53;;;3.47;;
12253;SDS011;6189;52.526;13.390;2023-03-11T16:56:12;5.93;;;3.33;;
12253;SDS011;6189;52.526;13.390;2023-03-11T16:58:59;6.30;;;3.83;;
12253;SDS011;6189;52.526;13.390;2023-03-11T17:01:44;4.93;;;3.20;;
12253;SDS011;6189;52.526;13.390;2023-03-11T17:04:30;3.57;;;3.27;;
12253;SDS011;6189;52.526;13.390;2023-03-11T17:07:16;4.83;;;3.80;;
12253;SDS011;6189;52.526;13.390;2023-03-11T17:10:02;4.23;;;3.27;;
12253;SDS011;6189;52.526;13.390;2023-03-11T17:12:48;11.13;;;5.87;;
12253;SDS011;6189;52.526;13.390;2023-03-11T17:15:35;7.10;;;4.77;;